sensor_id;sensor_type;location;lat;lon;timestamp;pressure;altitude;pressure_sealevel;temperature;humidity
9091;BME280;4581;42.416;25.598;2022-11-25T00:01:16;97922.59;;;8.74;70.75
9091;BME280;4581;42.416;25.598;2022-11-25T00:03:44;97927.50;;;8.70;71.11
9091;BME280;4581;42.416;25.598;2022-11-25T00:08:43;97925.63;;;8.71;69.77
9091;BME280;4581;42.416;25.598;2022-11-25T00:11:11;97921.22;;;8.78;69.80
9091;BME280;4581;42.416;25.598;2022-11-25T00:13:40;97919.72;;;8.75;69.58
9091;BME280;4581;42.416;25.598;2022-11-25T00:16:10;97923.59;;;8.73;69.18
9091;BME280;4581;42.416;25.598;2022-11-25T00:18:37;97927.50;;;8.70;68.89
9091;BME280;4581;42.416;25.598;2022-11-25T00:21:09;97928.50;;;8.69;69.75
9091;BME280;4581;42.416;25.598;2022-11-25T00:23:37;97928.66;;;8.68;69.13
9091;BME280;4581;42.416;25.598;2022-11-25T00:26:14;97943.06;;;8.75;68.98
9091;BME280;4581;42.416;25.598;2022-11-25T00:28:43;97941.88;;;8.77;68.61
9091;BME280;4581;42.416;25.598;2022-11-25T00:31:22;97935.66;;;8.77;67.65
9091;BME280;4581;42.416;25.598;2022-11-25T00:33:50;97941.03;;;8.77;68.44
9091;BME280;4581;42.416;25.598;2022-11-25T00:36:27;97941.53;;;8.80;68.15
9091;BME280;4581;42.416;25.598;2022-11-25T00:38:55;97937.16;;;8.79;68.03
9091;BME280;4581;42.416;25.598;2022-11-25T00:41:23;97938.31;;;8.85;69.14
9091;BME280;4581;42.416;25.598;2022-11-25T00:44:10;97932.97;;;8.77;69.09
9091;BME280;4581;42.416;25.598;2022-11-25T00:46:56;97932.44;;;8.81;68.45
9091;BME280;4581;42.416;25.598;2022-11-25T00:49:23;97939.84;;;8.79;68.44
9091;BME280;4581;42.416;25.598;2022-11-25T00:51:50;97926.22;;;8.81;67.60
9091;BME280;4581;42.416;25.598;2022-11-25T00:54:17;97940.03;;;8.78;67.87
9091;BME280;4581;42.416;25.598;2022-11-25T00:56:43;97934.66;;;8.78;67.30
9091;BME280;4581;42.416;25.598;2022-11-25T00:59:10;97937.34;;;8.78;67.49
9091;BME280;4581;42.416;25.598;2022-11-25T01:01:37;97941.03;;;8.77;68.79
9091;BME280;4581;42.416;25.598;2022-11-25T01:04:05;97948.94;;;8.78;67.84
9091;BME280;4581;42.416;25.598;2022-11-25T01:06:33;97943.72;;;8.77;66.99
9091;BME280;4581;42.416;25.598;2022-11-25T01:09:00;97952.63;;;8.77;67.82
9091;BME280;4581;42.416;25.598;2022-11-25T01:11:27;97959.69;;;8.78;67.11
9091;BME280;4581;42.416;25.598;2022-11-25T01:13:54;97957.53;;;8.74;68.00
9091;BME280;4581;42.416;25.598;2022-11-25T01:16:27;97954.66;;;8.75;68.14
9091;BME280;4581;42.416;25.598;2022-11-25T01:18:54;97962.31;;;8.86;66.63
9091;BME280;4581;42.416;25.598;2022-11-25T01:21:24;97962.66;;;8.83;68.08
9091;BME280;4581;42.416;25.598;2022-11-25T01:23:51;97972.56;;;8.83;68.04
9091;BME280;4581;42.416;25.598;2022-11-25T01:26:21;97970.19;;;8.88;67.74
9091;BME280;4581;42.416;25.598;2022-11-25T01:28:48;97970.56;;;8.85;68.59
9091;BME280;4581;42.416;25.598;2022-11-25T01:31:17;97968.22;;;8.82;67.94
9091;BME280;4581;42.416;25.598;2022-11-25T01:33:46;97967.50;;;8.88;66.42
9091;BME280;4581;42.416;25.598;2022-11-25T01:36:14;97965.75;;;8.95;66.96
9091;BME280;4581;42.416;25.598;2022-11-25T01:38:42;97958.75;;;8.94;66.78
9091;BME280;4581;42.416;25.598;2022-11-25T01:41:11;97970.13;;;8.96;66.43
9091;BME280;4581;42.416;25.598;2022-11-25T01:43:39;97957.22;;;8.91;66.06
9091;BME280;4581;42.416;25.598;2022-11-25T01:48:51;97945.09;;;8.96;67.13
9091;BME280;4581;42.416;25.598;2022-11-25T01:51:49;97954.69;;;8.98;66.57
9091;BME280;4581;42.416;25.598;2022-11-25T01:54:22;97955.00;;;8.95;67.57
9091;BME280;4581;42.416;25.598;2022-11-25T01:56:59;97956.53;;;8.98;67.30
9091;BME280;4581;42.416;25.598;2022-11-25T01:59:28;97958.22;;;8.99;66.21
9091;BME280;4581;42.416;25.598;2022-11-25T02:01:57;97964.13;;;8.94;66.44
9091;BME280;4581;42.416;25.598;2022-11-25T02:04:29;97976.03;;;8.91;66.14
9091;BME280;4581;42.416;25.598;2022-11-25T02:07:04;97956.09;;;8.86;66.23
9091;BME280;4581;42.416;25.598;2022-11-25T02:09:34;97961.13;;;8.89;65.65
9091;BME280;4581;42.416;25.598;2022-11-25T02:12:01;97969.19;;;8.89;66.92
9091;BME280;4581;42.416;25.598;2022-11-25T02:14:28;97962.84;;;8.82;65.75
9091;BME280;4581;42.416;25.598;2022-11-25T02:16:58;97954.47;;;8.77;66.87
9091;BME280;4581;42.416;25.598;2022-11-25T02:19:48;97964.22;;;8.78;65.98
9091;BME280;4581;42.416;25.598;2022-11-25T02:22:22;97967.91;;;8.77;66.77
9091;BME280;4581;42.416;25.598;2022-11-25T02:24:55;97959.38;;;8.73;67.34
9091;BME280;4581;42.416;25.598;2022-11-25T02:27:23;97965.59;;;8.74;66.51
9091;BME280;4581;42.416;25.598;2022-11-25T02:29:50;97960.22;;;8.74;66.76
9091;BME280;4581;42.416;25.598;2022-11-25T02:32:20;97959.53;;;8.72;66.14
9091;BME280;4581;42.416;25.598;2022-11-25T02:34:48;97954.16;;;8.72;67.72
9091;BME280;4581;42.416;25.598;2022-11-25T02:37:16;97947.97;;;8.71;66.77
9091;BME280;4581;42.416;25.598;2022-11-25T02:39:46;97960.22;;;8.74;66.79
9091;BME280;4581;42.416;25.598;2022-11-25T02:42:14;97962.91;;;8.74;65.41
9091;BME280;4581;42.416;25.598;2022-11-25T02:44:41;97968.94;;;8.76;66.79
9091;BME280;4581;42.416;25.598;2022-11-25T02:47:07;97958.84;;;8.78;65.54
9091;BME280;4581;42.416;25.598;2022-11-25T02:49:34;97972.09;;;8.79;65.99
9091;BME280;4581;42.416;25.598;2022-11-25T02:52:00;97977.31;;;8.81;65.67
9091;BME280;4581;42.416;25.598;2022-11-25T02:54:27;97979.81;;;8.82;65.47
9091;BME280;4581;42.416;25.598;2022-11-25T02:56:54;97984.16;;;8.83;64.97
9091;BME280;4581;42.416;25.598;2022-11-25T02:59:20;97990.91;;;8.79;65.11
9091;BME280;4581;42.416;25.598;2022-11-25T03:01:47;97993.75;;;8.86;65.92
9091;BME280;4581;42.416;25.598;2022-11-25T03:04:14;98001.97;;;8.84;64.71
9091;BME280;4581;42.416;25.598;2022-11-25T03:06:40;97997.06;;;8.88;64.06
9091;BME280;4581;42.416;25.598;2022-11-25T03:09:07;97998.91;;;8.87;65.12
9091;BME280;4581;42.416;25.598;2022-11-25T03:11:34;97994.59;;;8.86;64.48
9091;BME280;4581;42.416;25.598;2022-11-25T03:14:19;97998.22;;;8.93;65.96
9091;BME280;4581;42.416;25.598;2022-11-25T03:16:46;97994.84;;;8.91;63.83
9091;BME280;4581;42.416;25.598;2022-11-25T03:19:12;97999.75;;;8.88;64.57
9091;BME280;4581;42.416;25.598;2022-11-25T03:21:39;97992.22;;;8.83;65.77
9091;BME280;4581;42.416;25.598;2022-11-25T03:24:06;97996.94;;;8.81;65.18
9091;BME280;4581;42.416;25.598;2022-11-25T03:26:33;98007.88;;;8.80;64.71
9091;BME280;4581;42.416;25.598;2022-11-25T03:28:59;98009.56;;;8.81;64.15
9091;BME280;4581;42.416;25.598;2022-11-25T03:31:26;97998.81;;;8.81;64.42
9091;BME280;4581;42.416;25.598;2022-11-25T03:33:54;97999.66;;;8.81;64.79
9091;BME280;4581;42.416;25.598;2022-11-25T03:36:21;97995.09;;;8.82;65.08
9091;BME280;4581;42.416;25.598;2022-11-25T03:38:47;98009.19;;;8.84;63.68
9091;BME280;4581;42.416;25.598;2022-11-25T03:41:14;97997.44;;;8.85;62.73
9091;BME280;4581;42.416;25.598;2022-11-25T03:43:40;98030.53;;;8.85;63.01
9091;BME280;4581;42.416;25.598;2022-11-25T03:46:07;98012.19;;;8.89;62.40
9091;BME280;4581;42.416;25.598;2022-11-25T03:48:34;98010.19;;;8.83;62.80
9091;BME280;4581;42.416;25.598;2022-11-25T03:51:00;98013.03;;;8.89;63.11
9091;BME280;4581;42.416;25.598;2022-11-25T03:53:27;98008.81;;;8.87;62.15
9091;BME280;4581;42.416;25.598;2022-11-25T03:55:53;98004.13;;;8.89;63.37
9091;BME280;4581;42.416;25.598;2022-11-25T03:58:20;98003.66;;;8.85;62.25
9091;BME280;4581;42.416;25.598;2022-11-25T04:00:47;98002.44;;;8.88;62.36
9091;BME280;4581;42.416;25.598;2022-11-25T04:03:13;98004.66;;;8.84;62.63
9091;BME280;4581;42.416;25.598;2022-11-25T04:05:40;98014.41;;;8.85;62.13
9091;BME280;4581;42.416;25.598;2022-11-25T04:08:07;98014.56;;;8.84;61.85
9091;BME280;4581;42.416;25.598;2022-11-25T04:10:33;98012.56;;;8.86;61.77
9091;BME280;4581;42.416;25.598;2022-11-25T04:13:00;98012.72;;;8.84;62.44
9091;BME280;4581;42.416;25.598;2022-11-25T04:15:27;98025.16;;;8.85;62.92
9091;BME280;4581;42.416;25.598;2022-11-25T04:17:53;98031.38;;;8.86;62.70
9091;BME280;4581;42.416;25.598;2022-11-25T04:20:20;98031.38;;;8.86;62.73
9091;BME280;4581;42.416;25.598;2022-11-25T04:22:47;98031.69;;;8.83;61.62
9091;BME280;4581;42.416;25.598;2022-11-25T04:25:13;98018.78;;;8.86;61.40
9091;BME280;4581;42.416;25.598;2022-11-25T04:27:40;98015.25;;;8.86;61.76
9091;BME280;4581;42.416;25.598;2022-11-25T04:30:07;98019.28;;;8.82;62.86
9091;BME280;4581;42.416;25.598;2022-11-25T04:32:36;98029.22;;;8.81;62.26
9091;BME280;4581;42.416;25.598;2022-11-25T04:35:03;98018.94;;;8.85;62.94
9091;BME280;4581;42.416;25.598;2022-11-25T04:37:30;98034.69;;;8.88;61.89
9091;BME280;4581;42.416;25.598;2022-11-25T04:39:56;98035.72;;;8.87;62.00
9091;BME280;4581;42.416;25.598;2022-11-25T04:42:23;98039.72;;;8.91;61.37
9091;BME280;4581;42.416;25.598;2022-11-25T04:45:01;98045.41;;;8.96;60.32
9091;BME280;4581;42.416;25.598;2022-11-25T04:47:49;98038.19;;;8.97;60.45
9091;BME280;4581;42.416;25.598;2022-11-25T04:50:18;98027.25;;;8.98;61.68
9091;BME280;4581;42.416;25.598;2022-11-25T04:52:46;98039.34;;;9.02;60.97
9091;BME280;4581;42.416;25.598;2022-11-25T04:55:13;98042.66;;;9.04;60.01
9091;BME280;4581;42.416;25.598;2022-11-25T04:57:40;98039.97;;;9.04;59.85
9091;BME280;4581;42.416;25.598;2022-11-25T05:00:07;98052.41;;;9.05;59.47
9091;BME280;4581;42.416;25.598;2022-11-25T05:02:35;98044.50;;;9.04;59.93
9091;BME280;4581;42.416;25.598;2022-11-25T05:05:02;98052.41;;;9.05;58.78
9091;BME280;4581;42.416;25.598;2022-11-25T05:07:29;98061.00;;;9.01;59.21
9091;BME280;4581;42.416;25.598;2022-11-25T05:09:56;98066.19;;;9.10;60.10
9091;BME280;4581;42.416;25.598;2022-11-25T05:12:25;98073.88;;;9.13;59.07
9091;BME280;4581;42.416;25.598;2022-11-25T05:14:52;98077.63;;;9.04;59.17
9091;BME280;4581;42.416;25.598;2022-11-25T05:17:24;98082.47;;;9.09;58.83
9091;BME280;4581;42.416;25.598;2022-11-25T05:19:52;98090.38;;;9.10;60.00
9091;BME280;4581;42.416;25.598;2022-11-25T05:22:22;98092.69;;;9.13;59.33
9091;BME280;4581;42.416;25.598;2022-11-25T05:24:49;98097.94;;;9.07;59.81
9091;BME280;4581;42.416;25.598;2022-11-25T05:27:16;98096.97;;;9.00;60.29
9091;BME280;4581;42.416;25.598;2022-11-25T05:29:43;98106.84;;;9.07;61.08
9091;BME280;4581;42.416;25.598;2022-11-25T05:32:10;98109.88;;;9.04;61.53
9091;BME280;4581;42.416;25.598;2022-11-25T05:34:37;98109.28;;;8.94;61.38
9091;BME280;4581;42.416;25.598;2022-11-25T05:37:04;98125.41;;;8.94;61.37
9091;BME280;4581;42.416;25.598;2022-11-25T05:39:31;98122.19;;;8.99;60.74
9091;BME280;4581;42.416;25.598;2022-11-25T05:41:58;98126.75;;;8.98;60.88
9091;BME280;4581;42.416;25.598;2022-11-25T05:44:25;98121.38;;;8.98;61.58
9091;BME280;4581;42.416;25.598;2022-11-25T05:46:52;98119.00;;;8.95;62.40
9091;BME280;4581;42.416;25.598;2022-11-25T05:49:19;98123.72;;;8.93;62.34
9091;BME280;4581;42.416;25.598;2022-11-25T05:51:46;98145.72;;;8.97;62.67
9091;BME280;4581;42.416;25.598;2022-11-25T05:54:13;98149.09;;;8.99;63.31
9091;BME280;4581;42.416;25.598;2022-11-25T05:56:40;98144.19;;;9.02;63.85
9091;BME280;4581;42.416;25.598;2022-11-25T05:59:07;98148.38;;;9.05;64.38
9091;BME280;4581;42.416;25.598;2022-11-25T06:01:33;98153.03;;;9.11;63.89
9091;BME280;4581;42.416;25.598;2022-11-25T06:04:01;98157.31;;;8.97;63.57
9091;BME280;4581;42.416;25.598;2022-11-25T06:06:29;98161.00;;;8.96;60.01
9091;BME280;4581;42.416;25.598;2022-11-25T06:08:56;98164.03;;;9.01;60.44
9091;BME280;4581;42.416;25.598;2022-11-25T06:11:22;98164.03;;;9.01;60.64
9091;BME280;4581;42.416;25.598;2022-11-25T06:13:51;98172.00;;;9.17;60.51
9091;BME280;4581;42.416;25.598;2022-11-25T06:16:20;98170.84;;;9.12;61.84
9091;BME280;4581;42.416;25.598;2022-11-25T06:18:47;98187.34;;;9.09;62.74
9091;BME280;4581;42.416;25.598;2022-11-25T06:21:14;98186.16;;;9.11;64.81
9091;BME280;4581;42.416;25.598;2022-11-25T06:23:41;98184.16;;;9.05;67.56
9091;BME280;4581;42.416;25.598;2022-11-25T06:26:15;98183.19;;;8.98;68.30
9091;BME280;4581;42.416;25.598;2022-11-25T06:28:42;98196.63;;;8.98;69.11
9091;BME280;4581;42.416;25.598;2022-11-25T06:31:14;98184.91;;;8.83;68.03
9091;BME280;4581;42.416;25.598;2022-11-25T06:33:42;98192.66;;;8.86;64.09
9091;BME280;4581;42.416;25.598;2022-11-25T06:36:11;98192.63;;;8.94;62.39
9091;BME280;4581;42.416;25.598;2022-11-25T06:38:49;98200.09;;;9.07;63.54
9091;BME280;4581;42.416;25.598;2022-11-25T06:41:16;98195.09;;;9.04;64.68
9091;BME280;4581;42.416;25.598;2022-11-25T06:43:43;98204.31;;;9.09;62.17
9091;BME280;4581;42.416;25.598;2022-11-25T06:46:15;98207.50;;;9.13;61.59
9091;BME280;4581;42.416;25.598;2022-11-25T06:48:50;98211.34;;;9.18;62.28
9091;BME280;4581;42.416;25.598;2022-11-25T06:51:16;98216.53;;;9.20;62.90
9091;BME280;4581;42.416;25.598;2022-11-25T06:53:43;98211.16;;;9.20;64.21
9091;BME280;4581;42.416;25.598;2022-11-25T06:56:13;98215.50;;;9.29;62.08
9091;BME280;4581;42.416;25.598;2022-11-25T06:58:41;98231.91;;;9.42;62.09
9091;BME280;4581;42.416;25.598;2022-11-25T07:03:40;98222.78;;;9.51;62.49
9091;BME280;4581;42.416;25.598;2022-11-25T07:06:07;98231.00;;;9.58;62.14
9091;BME280;4581;42.416;25.598;2022-11-25T07:08:34;98222.59;;;9.53;61.35
9091;BME280;4581;42.416;25.598;2022-11-25T07:11:05;98229.31;;;9.57;61.23
9091;BME280;4581;42.416;25.598;2022-11-25T07:13:33;98233.31;;;9.61;62.17
9091;BME280;4581;42.416;25.598;2022-11-25T07:16:01;98228.63;;;9.63;60.58
9091;BME280;4581;42.416;25.598;2022-11-25T07:18:32;98239.03;;;9.66;60.82
9091;BME280;4581;42.416;25.598;2022-11-25T07:21:10;98238.31;;;9.72;60.65
9091;BME280;4581;42.416;25.598;2022-11-25T07:23:38;98246.00;;;9.75;60.33
9091;BME280;4581;42.416;25.598;2022-11-25T07:26:09;98252.59;;;9.72;60.40
9091;BME280;4581;42.416;25.598;2022-11-25T07:28:36;98246.81;;;9.83;61.20
9091;BME280;4581;42.416;25.598;2022-11-25T07:33:51;98262.03;;;9.99;61.09
9091;BME280;4581;42.416;25.598;2022-11-25T07:36:19;98269.88;;;10.09;61.03
9091;BME280;4581;42.416;25.598;2022-11-25T07:38:45;98274.03;;;10.19;59.75
9091;BME280;4581;42.416;25.598;2022-11-25T07:41:15;98279.38;;;10.27;59.57
9091;BME280;4581;42.416;25.598;2022-11-25T07:43:52;98282.19;;;10.34;59.18
9091;BME280;4581;42.416;25.598;2022-11-25T07:46:21;98286.41;;;10.51;60.80
9091;BME280;4581;42.416;25.598;2022-11-25T07:48:55;98285.31;;;10.46;58.96
9091;BME280;4581;42.416;25.598;2022-11-25T07:51:27;98287.56;;;10.57;59.24
9091;BME280;4581;42.416;25.598;2022-11-25T07:53:55;98297.75;;;10.69;59.08
9091;BME280;4581;42.416;25.598;2022-11-25T07:56:23;98294.13;;;10.77;59.15
9091;BME280;4581;42.416;25.598;2022-11-25T07:58:50;98299.53;;;10.77;58.40
9091;BME280;4581;42.416;25.598;2022-11-25T08:01:18;98304.47;;;10.88;59.42
9091;BME280;4581;42.416;25.598;2022-11-25T08:03:46;98309.59;;;10.83;57.86
9091;BME280;4581;42.416;25.598;2022-11-25T08:06:16;98307.94;;;10.97;58.29
9091;BME280;4581;42.416;25.598;2022-11-25T08:08:44;98309.44;;;10.99;57.04
9091;BME280;4581;42.416;25.598;2022-11-25T08:11:21;98312.88;;;11.08;56.81
9091;BME280;4581;42.416;25.598;2022-11-25T08:13:48;98312.63;;;11.17;58.38
9091;BME280;4581;42.416;25.598;2022-11-25T08:16:17;98314.63;;;11.15;58.24
9091;BME280;4581;42.416;25.598;2022-11-25T08:18:44;98310.56;;;11.19;56.27
9091;BME280;4581;42.416;25.598;2022-11-25T08:21:12;98319.78;;;11.25;56.20
9091;BME280;4581;42.416;25.598;2022-11-25T08:23:40;98314.13;;;11.35;56.97
9091;BME280;4581;42.416;25.598;2022-11-25T08:26:10;98304.63;;;11.53;58.97
9091;BME280;4581;42.416;25.598;2022-11-25T08:28:39;98315.16;;;11.63;56.73
9091;BME280;4581;42.416;25.598;2022-11-25T08:31:16;98319.41;;;11.57;55.83
9091;BME280;4581;42.416;25.598;2022-11-25T08:33:43;98320.19;;;11.51;55.89
9091;BME280;4581;42.416;25.598;2022-11-25T08:36:10;98323.25;;;11.34;56.70
9091;BME280;4581;42.416;25.598;2022-11-25T08:38:39;98325.81;;;11.12;56.04
9091;BME280;4581;42.416;25.598;2022-11-25T08:41:14;98324.25;;;11.18;56.08
9091;BME280;4581;42.416;25.598;2022-11-25T08:43:41;98323.31;;;11.25;57.39
9091;BME280;4581;42.416;25.598;2022-11-25T08:46:15;98331.78;;;11.37;56.05
9091;BME280;4581;42.416;25.598;2022-11-25T08:48:42;98327.34;;;11.59;56.21
9091;BME280;4581;42.416;25.598;2022-11-25T08:51:20;98328.09;;;11.82;55.66
9091;BME280;4581;42.416;25.598;2022-11-25T08:53:47;98337.44;;;12.15;53.75
9091;BME280;4581;42.416;25.598;2022-11-25T08:56:17;98335.16;;;12.34;54.23
9091;BME280;4581;42.416;25.598;2022-11-25T08:58:51;98347.41;;;12.51;51.49
9091;BME280;4581;42.416;25.598;2022-11-25T09:01:18;98336.34;;;12.67;52.33
9091;BME280;4581;42.416;25.598;2022-11-25T09:03:47;98343.91;;;12.78;51.96
9091;BME280;4581;42.416;25.598;2022-11-25T09:06:16;98345.75;;;12.71;51.10
9091;BME280;4581;42.416;25.598;2022-11-25T09:08:43;98337.84;;;12.76;51.54
9091;BME280;4581;42.416;25.598;2022-11-25T09:11:11;98336.97;;;12.90;52.44
9091;BME280;4581;42.416;25.598;2022-11-25T09:13:38;98341.34;;;12.91;51.05
9091;BME280;4581;42.416;25.598;2022-11-25T09:16:05;98343.84;;;12.93;50.88
9091;BME280;4581;42.416;25.598;2022-11-25T09:18:32;98327.88;;;12.77;49.81
9091;BME280;4581;42.416;25.598;2022-11-25T09:21:06;98333.41;;;13.11;50.57
9091;BME280;4581;42.416;25.598;2022-11-25T09:23:35;98331.16;;;13.15;50.45
9091;BME280;4581;42.416;25.598;2022-11-25T09:26:02;98326.47;;;13.08;49.71
9091;BME280;4581;42.416;25.598;2022-11-25T09:28:28;98324.47;;;13.45;49.20
9091;BME280;4581;42.416;25.598;2022-11-25T09:30:55;98330.69;;;14.21;46.99
9091;BME280;4581;42.416;25.598;2022-11-25T09:33:22;98323.91;;;14.44;47.34
9091;BME280;4581;42.416;25.598;2022-11-25T09:35:49;98338.81;;;15.34;45.37
9091;BME280;4581;42.416;25.598;2022-11-25T09:38:15;98322.00;;;15.89;43.04
9091;BME280;4581;42.416;25.598;2022-11-25T09:40:58;98333.97;;;16.26;42.51
9091;BME280;4581;42.416;25.598;2022-11-25T09:52:39;98341.06;;;14.51;46.01
9091;BME280;4581;42.416;25.598;2022-11-25T09:55:15;98346.91;;;14.55;44.79
9091;BME280;4581;42.416;25.598;2022-11-25T09:58:05;98344.00;;;14.63;45.39
9091;BME280;4581;42.416;25.598;2022-11-25T10:00:45;98343.81;;;14.78;44.59
9091;BME280;4581;42.416;25.598;2022-11-25T10:06:22;98341.31;;;15.22;43.84
9091;BME280;4581;42.416;25.598;2022-11-25T10:09:02;98331.50;;;15.28;44.05
9091;BME280;4581;42.416;25.598;2022-11-25T10:12:04;98336.19;;;16.05;42.20
9091;BME280;4581;42.416;25.598;2022-11-25T10:14:50;98335.50;;;17.66;38.12
9091;BME280;4581;42.416;25.598;2022-11-25T10:17:44;98335.72;;;18.55;36.83
9091;BME280;4581;42.416;25.598;2022-11-25T10:20:33;98329.22;;;18.20;36.58
9091;BME280;4581;42.416;25.598;2022-11-25T10:23:07;98327.94;;;17.43;38.85
9091;BME280;4581;42.416;25.598;2022-11-25T10:25:41;98325.50;;;17.35;39.52
9091;BME280;4581;42.416;25.598;2022-11-25T10:31:05;98322.84;;;17.28;40.17
9091;BME280;4581;42.416;25.598;2022-11-25T10:36:19;98327.94;;;17.86;37.61
9091;BME280;4581;42.416;25.598;2022-11-25T10:41:22;98332.72;;;18.27;36.86
9091;BME280;4581;42.416;25.598;2022-11-25T10:43:49;98327.19;;;20.73;35.11
9091;BME280;4581;42.416;25.598;2022-11-25T10:52:12;98328.75;;;25.09;27.85
9091;BME280;4581;42.416;25.598;2022-11-25T10:54:39;98335.66;;;25.32;26.38
9091;BME280;4581;42.416;25.598;2022-11-25T10:57:18;98330.50;;;24.53;26.85
9091;BME280;4581;42.416;25.598;2022-11-25T10:59:58;98328.31;;;24.60;27.01
9091;BME280;4581;42.416;25.598;2022-11-25T11:02:27;98329.03;;;25.07;25.36
9091;BME280;4581;42.416;25.598;2022-11-25T11:05:01;98331.00;;;25.52;26.11
9091;BME280;4581;42.416;25.598;2022-11-25T11:07:31;98330.94;;;26.03;25.02
9091;BME280;4581;42.416;25.598;2022-11-25T11:13:03;98329.81;;;24.93;25.88
9091;BME280;4581;42.416;25.598;2022-11-25T11:18:23;98336.72;;;23.81;27.30
9091;BME280;4581;42.416;25.598;2022-11-25T11:20:53;98340.38;;;25.77;25.03
9091;BME280;4581;42.416;25.598;2022-11-25T11:23:21;98352.63;;;27.14;24.42
9091;BME280;4581;42.416;25.598;2022-11-25T11:31:04;98345.00;;;26.22;25.79
9091;BME280;4581;42.416;25.598;2022-11-25T11:33:44;98348.06;;;27.33;23.53
9091;BME280;4581;42.416;25.598;2022-11-25T11:36:56;98341.56;;;23.64;26.78
9091;BME280;4581;42.416;25.598;2022-11-25T11:39:39;98336.50;;;20.60;29.63
9091;BME280;4581;42.416;25.598;2022-11-25T11:48:34;98347.75;;;26.17;25.34
9091;BME280;4581;42.416;25.598;2022-11-25T11:51:21;98352.41;;;24.17;27.15
9091;BME280;4581;42.416;25.598;2022-11-25T11:57:14;98331.97;;;20.94;29.90
9091;BME280;4581;42.416;25.598;2022-11-25T11:59:47;98332.59;;;20.04;30.65
9091;BME280;4581;42.416;25.598;2022-11-25T12:10:37;98338.09;;;18.15;33.00
9091;BME280;4581;42.416;25.598;2022-11-25T12:21:59;98341.88;;;19.34;31.28
9091;BME280;4581;42.416;25.598;2022-11-25T12:24:31;98350.16;;;21.00;28.27
9091;BME280;4581;42.416;25.598;2022-11-25T12:27:16;98355.28;;;21.25;28.28
9091;BME280;4581;42.416;25.598;2022-11-25T12:29:49;98359.91;;;22.51;27.10
9091;BME280;4581;42.416;25.598;2022-11-25T12:40:14;98362.19;;;23.03;26.79
9091;BME280;4581;42.416;25.598;2022-11-25T12:42:43;98361.88;;;22.12;26.50
9091;BME280;4581;42.416;25.598;2022-11-25T12:47:40;98361.16;;;22.38;26.83
9091;BME280;4581;42.416;25.598;2022-11-25T12:50:17;98357.41;;;21.06;28.03
9091;BME280;4581;42.416;25.598;2022-11-25T12:53:04;98370.50;;;18.90;30.86
9091;BME280;4581;42.416;25.598;2022-11-25T12:55:39;98356.25;;;17.42;32.98
9091;BME280;4581;42.416;25.598;2022-11-25T13:04:07;98364.47;;;14.79;37.44
9091;BME280;4581;42.416;25.598;2022-11-25T13:06:58;98361.16;;;13.75;39.64
9091;BME280;4581;42.416;25.598;2022-11-25T13:15:22;98356.19;;;16.68;34.24
9091;BME280;4581;42.416;25.598;2022-11-25T13:17:55;98367.34;;;16.91;34.57
9091;BME280;4581;42.416;25.598;2022-11-25T13:25:34;98376.41;;;15.70;35.81
9091;BME280;4581;42.416;25.598;2022-11-25T13:28:04;98365.31;;;14.92;37.89
9091;BME280;4581;42.416;25.598;2022-11-25T13:35:53;98361.50;;;14.06;40.64
9091;BME280;4581;42.416;25.598;2022-11-25T13:46:45;98377.47;;;12.62;43.42
9091;BME280;4581;42.416;25.598;2022-11-25T13:49:39;98382.00;;;12.41;45.18
9091;BME280;4581;42.416;25.598;2022-11-25T13:54:54;98381.00;;;11.91;45.09
9091;BME280;4581;42.416;25.598;2022-11-25T13:57:32;98385.94;;;11.73;46.01
9091;BME280;4581;42.416;25.598;2022-11-25T14:02:45;98395.88;;;11.58;46.04
9091;BME280;4581;42.416;25.598;2022-11-25T14:14:02;98401.59;;;11.40;46.27
9091;BME280;4581;42.416;25.598;2022-11-25T14:25:13;98410.59;;;11.18;46.49
9091;BME280;4581;42.416;25.598;2022-11-25T14:27:50;98413.28;;;11.18;46.36
9091;BME280;4581;42.416;25.598;2022-11-25T14:30:19;98420.53;;;11.17;46.22
9091;BME280;4581;42.416;25.598;2022-11-25T14:32:56;98415.78;;;11.19;46.72
9091;BME280;4581;42.416;25.598;2022-11-25T14:35:31;98409.81;;;11.09;47.10
9091;BME280;4581;42.416;25.598;2022-11-25T14:38:21;98417.91;;;11.09;47.00
9091;BME280;4581;42.416;25.598;2022-11-25T14:40:53;98417.91;;;11.09;47.94
9091;BME280;4581;42.416;25.598;2022-11-25T14:43:23;98418.63;;;11.03;47.56
9091;BME280;4581;42.416;25.598;2022-11-25T14:46:18;98420.38;;;10.96;48.78
9091;BME280;4581;42.416;25.598;2022-11-25T14:48:57;98425.28;;;10.93;49.52
9091;BME280;4581;42.416;25.598;2022-11-25T14:51:26;98425.50;;;10.91;48.36
9091;BME280;4581;42.416;25.598;2022-11-25T14:53:58;98432.81;;;10.83;49.03
9091;BME280;4581;42.416;25.598;2022-11-25T14:56:31;98429.91;;;10.84;49.04
9091;BME280;4581;42.416;25.598;2022-11-25T14:58:59;98430.16;;;10.74;48.74
9091;BME280;4581;42.416;25.598;2022-11-25T15:01:31;98443.53;;;10.60;49.06
9091;BME280;4581;42.416;25.598;2022-11-25T15:06:39;98433.22;;;10.41;50.20
9091;BME280;4581;42.416;25.598;2022-11-25T15:09:20;98443.88;;;10.34;50.63
9091;BME280;4581;42.416;25.598;2022-11-25T15:11:50;98432.47;;;10.24;51.47
9091;BME280;4581;42.416;25.598;2022-11-25T15:14:27;98443.09;;;10.17;51.81
9091;BME280;4581;42.416;25.598;2022-11-25T15:16:55;98441.63;;;10.15;52.29
9091;BME280;4581;42.416;25.598;2022-11-25T15:19:26;98449.50;;;10.08;52.02
9091;BME280;4581;42.416;25.598;2022-11-25T15:22:04;98443.31;;;10.00;53.14
9091;BME280;4581;42.416;25.598;2022-11-25T15:24:51;98445.03;;;9.93;53.79
9091;BME280;4581;42.416;25.598;2022-11-25T15:27:24;98451.44;;;9.83;54.40
9091;BME280;4581;42.416;25.598;2022-11-25T15:29:53;98453.81;;;9.78;54.93
9091;BME280;4581;42.416;25.598;2022-11-25T15:32:28;98462.06;;;9.77;54.72
9091;BME280;4581;42.416;25.598;2022-11-25T15:34:57;98460.03;;;9.71;55.19
9091;BME280;4581;42.416;25.598;2022-11-25T15:37:25;98465.13;;;9.66;55.61
9091;BME280;4581;42.416;25.598;2022-11-25T15:40:28;98465.13;;;9.66;56.32
9091;BME280;4581;42.416;25.598;2022-11-25T15:42:57;98460.91;;;9.63;56.70
9091;BME280;4581;42.416;25.598;2022-11-25T15:45:26;98454.19;;;9.51;57.28
9091;BME280;4581;42.416;25.598;2022-11-25T15:47:55;98469.53;;;9.51;56.94
9091;BME280;4581;42.416;25.598;2022-11-25T15:50:24;98458.44;;;9.46;57.10
9091;BME280;4581;42.416;25.598;2022-11-25T15:52:57;98470.53;;;9.42;57.42
9091;BME280;4581;42.416;25.598;2022-11-25T15:55:33;98468.50;;;9.44;58.04
9091;BME280;4581;42.416;25.598;2022-11-25T16:01:04;98465.31;;;9.32;58.11